La Grande Rivière Airport
CYGL : now visible

Airfield :











YOU CAN JOIN US ON...

 
LOGIN :

Register | Disclaimer

   EN    FR    IT 

 









Legend :    VFR   Marginal VFR   IFR   Intensive IFR   Very Intensive IFR
Visi :
Ceiling :
>= 8 km
>= 3000ft
5 to 8 km
1000 to 3000 ft
1500m to 5 km
500 to 1000 ft
800 to 1500m
200 to 500 ft
< 800m
< 200 ft
Symbols :   Thunderstorms  Fog  Heavy snow  Heavy precipitations  Wind > 20 kt






- Airport Elevation : 639 ft
- IATA code : YGL


CYGL - La Grande Rivière

CURRENT METAR :
  • 231736Z 22008G15KT 3SM -RA BR BKN006 OVC028 08/07 A2944 RMK SF5SC3 SLP979

EXPIRED METARs :
  • 231707Z 23007KT 190V250 3SM RA BR BKN004 OVC022 08/07 A2943 RMK SF7SC1 SLP974
  • 231600Z 11011KT 3SM RA BR OVC004 08/07 A2940 RMK SF8 SLP966
  • 231532Z 08011G17KT 1 1/2SM RA BR OVC005 07/07 A2939 RMK SF8 SLP963
  • 231500Z 09010KT 1 1/2SM +RA BR OVC005 07/07 A2939 RMK SC8 /R12/ SLP962
  • 231430Z 07011G19KT 1SM +RA BR OVC004 07/06 A2938 RMK SF8 SLP959
  • 231414Z 08013G19KT 1SM +RA BR OVC005 07/06 A2938 RMK SF8 SLP959
  • 231400Z 08014G21KT 2SM RA BR OVC007 07/06 A2937 RMK SF8 SLP956
  • 231350Z 08011G19KT 4SM -RA BR BKN007 OVC013 08/06 A2937 RMK SF7SC1 SLP954
  • 231321Z 07013G22KT 15SM -RA BKN009 OVC013 07/06 A2936 RMK SF6SC2 SLP952
  • 231300Z 07017G23KT 15SM -RA OVC010 07/06 A2937 RMK SC8 VIS S-W LWR SLP954

TAF AMD TAF CYGL
Valid from the 23 at 13:00 until the 24 at 12:00 UTC


231303Z 2313/2412 07015G25KT 1 1/2SM RA BR OVC005
TEMPO 2313/2317 6SM -RA BR OVC010
PROB30 2313/2317 VRB15G25KT 1SM TSRA BR BKN005 OVC015CB
FM231700 23015G25KT 6SM -RA BR OVC010
TEMPO 2317/2320 4SM -RA -DZ BR BKN005 OVC010
FM232000 28010G20KT P6SM BKN030
TEMPO 2320/2402 BKN020
FM240200 27010KT 6SM BR SCT020
FM240500 27007KT 2SM BR BKN005
PROB30 2405/2412 1/2SM FG VV002 RMK NXT FCST BY 231800Z
CZUL FIR / North America



MET'MAP, your aeronautical weather chart ! - Copyright ORBIFLY December 2007 - Disclaimer

ORBIFLY MET'MAP TEAM :

Programming & Development : Alexandra Zaïnal
Original concept : Baudouin d'Aumeries
Technical & hardware support : Manuel Goepfert
Assistance : Marc-Olivier Méhu




SOURCES & CREDITS :

   NOAA       Earth
Advisory